Time;durP1;ratioP1;P1;durP2;ratioP2;P2;SDS_P1;SDS_P2;PMS_P1;PMS_P2;Temp;Humidity;BMP_temperature;BMP_pressure;BME280_temperature;BME280_humidity;BME280_pressure;Samples;Min_cycle;Max_cycle;Signal;HPM_P1;HPM_P2
2021/11/24 00:00:42;;;;;;;53.53;28.55;;;;;;;;;;4915043;29;20118;-63
2021/11/24 00:03:08;;;;;;;59.08;31.15;;;;;;;;;;4914644;29;20040;-63
2021/11/24 00:05:34;;;;;;;54.67;30.00;;;;;;;;;;4914899;29;20028;-76
2021/11/24 00:08:00;;;;;;;48.97;27.73;;;;;;;;;;4915084;29;20039;-63
2021/11/24 00:10:32;;;;;;;52.28;28.63;;;;;;;;;;4914728;29;20032;-63
2021/11/24 00:12:58;;;;;;;53.38;29.38;;;;;;;;;;4914921;29;20095;-64
2021/11/24 00:15:24;;;;;;;52.70;27.88;;;;;;;;;;4914805;29;20104;-63
2021/11/24 00:17:50;;;;;;;54.85;28.67;;;;;;;;;;4897636;29;20047;-65
2021/11/24 00:20:17;;;;;;;54.25;28.90;;;;;;;;;;4914342;29;20035;-63
2021/11/24 00:22:43;;;;;;;52.35;28.65;;;;;;;;;;4914541;29;20036;-63
2021/11/24 00:25:10;;;;;;;53.17;27.50;;;;;;;;;;4914694;29;20115;-63
2021/11/24 00:27:36;;;;;;;53.55;28.15;;;;;;;;;;4914635;29;20032;-63
2021/11/24 00:30:03;;;;;;;52.75;28.00;;;;;;;;;;4914646;29;20040;-63
2021/11/24 00:32:30;;;;;;;49.40;27.70;;;;;;;;;;4914409;29;20448;-66
2021/11/24 00:34:56;;;;;;;48.17;27.17;;;;;;;;;;4914329;29;20389;-63
2021/11/24 00:37:22;;;;;;;47.55;26.67;;;;;;;;;;4913944;29;20129;-63
2021/11/24 00:39:48;;;;;;;50.50;27.42;;;;;;;;;;4914398;29;20054;-63
2021/11/24 00:42:14;;;;;;;50.63;26.80;;;;;;;;;;4914170;29;20083;-63
2021/11/24 00:44:40;;;;;;;47.00;26.20;;;;;;;;;;4914446;29;20155;-63
2021/11/24 00:47:08;;;;;;;48.17;26.60;;;;;;;;;;4914365;29;20029;-63
2021/11/24 00:49:34;;;;;;;50.63;26.10;;;;;;;;;;4897211;29;20052;-63
2021/11/24 00:52:00;;;;;;;50.20;24.90;;;;;;;;;;4914356;29;20433;-63
2021/11/24 00:54:26;;;;;;;48.63;26.27;;;;;;;;;;4914553;29;20463;-63
2021/11/24 00:56:52;;;;;;;44.10;25.60;;;;;;;;;;4914467;29;20391;-63
2021/11/24 00:59:18;;;;;;;47.42;25.80;;;;;;;;;;4897426;29;20040;-64
2021/11/24 01:01:44;;;;;;;49.80;26.50;;;;;;;;;;4914372;29;20028;-64
2021/11/24 01:04:10;;;;;;;43.72;25.30;;;;;;;;;;4914477;29;20039;-63
2021/11/24 01:06:37;;;;;;;46.25;24.92;;;;;;;;;;4917681;29;20066;-63
2021/11/24 01:09:04;;;;;;;49.17;25.08;;;;;;;;;;4918045;29;20035;-63
2021/11/24 01:11:30;;;;;;;49.05;25.52;;;;;;;;;;4917924;29;20028;-63
2021/11/24 01:13:56;;;;;;;47.90;26.50;;;;;;;;;;4917829;29;20024;-62
2021/11/24 01:16:22;;;;;;;50.85;26.27;;;;;;;;;;4917912;29;20040;-63
2021/11/24 01:18:48;;;;;;;47.17;25.80;;;;;;;;;;4917987;29;20076;-63
2021/11/24 01:21:14;;;;;;;47.92;27.00;;;;;;;;;;4917784;29;20111;-63
2021/11/24 01:23:40;;;;;;;45.80;25.60;;;;;;;;;;4917684;29;20548;-62
2021/11/24 01:26:06;;;;;;;47.03;26.20;;;;;;;;;;4917733;29;20104;-63
2021/11/24 01:28:33;;;;;;;44.47;25.10;;;;;;;;;;4901022;29;20035;-63
2021/11/24 01:30:59;;;;;;;47.58;25.73;;;;;;;;;;4900414;29;20026;-63
2021/11/24 01:33:25;;;;;;;49.90;26.00;;;;;;;;;;4917477;29;20024;-63
2021/11/24 01:35:51;;;;;;;52.42;28.25;;;;;;;;;;4917741;29;20032;-64
2021/11/24 01:38:17;;;;;;;58.25;28.35;;;;;;;;;;4917562;29;20032;-62
2021/11/24 01:40:43;;;;;;;58.05;28.75;;;;;;;;;;4917431;29;20031;-63
2021/11/24 01:43:09;;;;;;;55.75;28.65;;;;;;;;;;4917297;29;20366;-61
2021/11/24 01:45:36;;;;;;;50.58;27.33;;;;;;;;;;4917884;29;20064;-62
2021/11/24 01:48:02;;;;;;;53.03;28.05;;;;;;;;;;4917341;29;20048;-63
2021/11/24 01:50:29;;;;;;;52.88;27.77;;;;;;;;;;4916996;29;20028;-63
2021/11/24 01:52:55;;;;;;;48.97;26.42;;;;;;;;;;4917501;29;20038;-61
2021/11/24 01:55:22;;;;;;;54.28;27.85;;;;;;;;;;4917552;29;20025;-61
2021/11/24 01:57:49;;;;;;;57.67;28.77;;;;;;;;;;4916734;29;20092;-63
2021/11/24 02:00:20;;;;;;;51.75;28.80;;;;;;;;;;4916834;29;20055;-63
2021/11/24 02:02:46;;;;;;;48.70;27.98;;;;;;;;;;4917223;29;20157;-62
2021/11/24 02:05:12;;;;;;;55.13;28.75;;;;;;;;;;4917198;29;20021;-62
2021/11/24 02:07:38;;;;;;;56.00;28.15;;;;;;;;;;4917259;29;20103;-62
2021/11/24 02:10:04;;;;;;;53.45;28.63;;;;;;;;;;4916973;29;20032;-64
2021/11/24 02:12:30;;;;;;;54.95;28.60;;;;;;;;;;4916672;29;20043;-62
2021/11/24 02:14:56;;;;;;;51.65;27.98;;;;;;;;;;4916934;29;20028;-73
2021/11/24 02:17:22;;;;;;;54.35;28.52;;;;;;;;;;4916809;29;20393;-62
2021/11/24 02:19:48;;;;;;;48.60;28.35;;;;;;;;;;4916848;29;20160;-63
2021/11/24 02:22:14;;;;;;;55.47;29.30;;;;;;;;;;4916574;29;20036;-70
2021/11/24 02:24:41;;;;;;;54.10;28.55;;;;;;;;;;4916547;29;20036;-62
2021/11/24 02:27:08;;;;;;;50.80;26.95;;;;;;;;;;4899828;29;20073;-74
2021/11/24 02:29:35;;;;;;;47.53;27.00;;;;;;;;;;4916771;29;20035;-67
2021/11/24 02:32:01;;;;;;;52.45;28.38;;;;;;;;;;4916711;29;20476;-64
2021/11/24 02:34:28;;;;;;;54.50;28.52;;;;;;;;;;4916662;29;20043;-61
2021/11/24 02:36:55;;;;;;;57.17;29.55;;;;;;;;;;4916625;29;20028;-63
2021/11/24 02:39:21;;;;;;;58.00;27.73;;;;;;;;;;4916606;29;20107;-62
2021/11/24 02:41:47;;;;;;;58.50;28.52;;;;;;;;;;4916298;29;20135;-68
2021/11/24 02:44:16;;;;;;;50.75;28.80;;;;;;;;;;4916284;29;20032;-62
2021/11/24 02:46:42;;;;;;;51.78;27.52;;;;;;;;;;4916417;29;20024;-73
2021/11/24 02:49:08;;;;;;;51.47;27.30;;;;;;;;;;4916385;29;20460;-66
2021/11/24 02:51:34;;;;;;;57.60;29.48;;;;;;;;;;4916254;29;20393;-72
2021/11/24 02:54:00;;;;;;;55.53;29.58;;;;;;;;;;4916197;29;20064;-73
2021/11/24 02:56:26;;;;;;;63.22;31.38;;;;;;;;;;4916187;29;20039;-69
2021/11/24 02:58:52;;;;;;;56.60;29.75;;;;;;;;;;4916248;29;20031;-73
2021/11/24 03:01:18;;;;;;;59.58;30.10;;;;;;;;;;4916979;29;20062;-69
2021/11/24 03:03:44;;;;;;;57.08;29.90;;;;;;;;;;4917852;29;20032;-66
2021/11/24 03:06:10;;;;;;;63.83;30.25;;;;;;;;;;4916644;29;20028;-62
2021/11/24 03:08:36;;;;;;;68.85;36.58;;;;;;;;;;4916369;29;20024;-62
2021/11/24 03:11:03;;;;;;;66.18;34.15;;;;;;;;;;4915812;29;20052;-61
2021/11/24 03:13:29;;;;;;;58.50;29.85;;;;;;;;;;4915656;29;20028;-62
2021/11/24 03:15:55;;;;;;;58.65;30.42;;;;;;;;;;4915723;29;20036;-62
2021/11/24 03:18:21;;;;;;;57.20;29.52;;;;;;;;;;4916069;29;20103;-62
2021/11/24 03:20:47;;;;;;;58.38;29.67;;;;;;;;;;4916013;29;20548;-61
2021/11/24 03:23:13;;;;;;;55.38;29.98;;;;;;;;;;4915531;29;20052;-68
2021/11/24 03:25:39;;;;;;;58.03;30.48;;;;;;;;;;4915716;29;20055;-64
2021/11/24 03:28:05;;;;;;;58.03;30.35;;;;;;;;;;4915038;29;20163;-66
2021/11/24 03:30:33;;;;;;;54.03;28.98;;;;;;;;;;4915661;29;20035;-62
2021/11/24 03:32:59;;;;;;;53.47;29.10;;;;;;;;;;4915524;29;20112;-62
2021/11/24 03:35:25;;;;;;;56.92;30.33;;;;;;;;;;4915293;29;20035;-62
2021/11/24 03:37:52;;;;;;;48.13;27.38;;;;;;;;;;4915706;29;20107;-62
2021/11/24 03:40:20;;;;;;;54.15;29.15;;;;;;;;;;4915376;29;20366;-62
2021/11/24 03:42:47;;;;;;;53.20;28.65;;;;;;;;;;4915031;29;20043;-62
2021/11/24 03:45:17;;;;;;;50.55;28.55;;;;;;;;;;4915025;29;20020;-63
2021/11/24 03:47:43;;;;;;;57.72;28.75;;;;;;;;;;4915140;29;20095;-65
2021/11/24 03:50:10;;;;;;;55.13;28.60;;;;;;;;;;4915097;29;20032;-62
2021/11/24 03:52:37;;;;;;;52.75;28.90;;;;;;;;;;4915046;29;20039;-63
2021/11/24 03:55:06;;;;;;;54.17;29.70;;;;;;;;;;4915305;29;20028;-62
2021/11/24 03:57:33;;;;;;;59.45;29.90;;;;;;;;;;4898028;29;20051;-62
2021/11/24 03:59:59;;;;;;;54.22;29.67;;;;;;;;;;4915207;29;20043;-62
2021/11/24 04:02:25;;;;;;;57.75;29.38;;;;;;;;;;4914849;29;20075;-62
2021/11/24 04:04:52;;;;;;;57.75;29.45;;;;;;;;;;4915064;29;20024;-63
2021/11/24 04:07:18;;;;;;;51.45;29.15;;;;;;;;;;4915029;29;20026;-62
2021/11/24 04:09:44;;;;;;;54.92;28.65;;;;;;;;;;4915090;29;20024;-62
2021/11/24 04:12:10;;;;;;;52.90;29.52;;;;;;;;;;4915008;29;20489;-61
2021/11/24 04:14:36;;;;;;;58.45;31.40;;;;;;;;;;4915032;29;20095;-62
2021/11/24 04:17:02;;;;;;;54.88;29.17;;;;;;;;;;4915049;29;20047;-62
2021/11/24 04:19:28;;;;;;;53.97;30.08;;;;;;;;;;4914826;29;20036;-62
2021/11/24 04:21:54;;;;;;;53.70;28.88;;;;;;;;;;4914512;29;20036;-62
2021/11/24 04:24:21;;;;;;;51.05;28.52;;;;;;;;;;4914892;29;20036;-61
2021/11/24 04:26:47;;;;;;;54.15;29.33;;;;;;;;;;4914847;29;20032;-62
2021/11/24 04:29:13;;;;;;;55.25;28.92;;;;;;;;;;4915113;29;20079;-62
2021/11/24 04:31:40;;;;;;;54.83;28.33;;;;;;;;;;4914959;29;20547;-62
2021/11/24 04:34:06;;;;;;;58.17;29.98;;;;;;;;;;4914699;29;20461;-62
2021/11/24 04:36:32;;;;;;;52.65;27.92;;;;;;;;;;4914556;29;20485;-69
2021/11/24 04:38:58;;;;;;;57.83;29.50;;;;;;;;;;4914919;29;20036;-62
2021/11/24 04:41:24;;;;;;;54.42;28.85;;;;;;;;;;4918031;29;20095;-63
2021/11/24 04:43:50;;;;;;;59.78;30.13;;;;;;;;;;4918396;29;20497;-62
2021/11/24 04:46:17;;;;;;;55.22;29.38;;;;;;;;;;4918771;29;20435;-72
2021/11/24 04:48:43;;;;;;;58.83;30.38;;;;;;;;;;4918454;29;20044;-62
2021/11/24 04:51:10;;;;;;;57.95;29.83;;;;;;;;;;4918352;29;20032;-73
2021/11/24 04:53:36;;;;;;;58.75;30.02;;;;;;;;;;4918122;29;20034;-62
2021/11/24 04:56:03;;;;;;;53.67;30.20;;;;;;;;;;4918377;29;20044;-62
2021/11/24 04:58:29;;;;;;;58.45;30.77;;;;;;;;;;4918339;29;20035;-72
2021/11/24 05:00:56;;;;;;;56.63;30.30;;;;;;;;;;4918263;29;20092;-62
2021/11/24 05:03:22;;;;;;;58.67;30.73;;;;;;;;;;4918009;29;20044;-62
2021/11/24 05:05:48;;;;;;;59.35;31.55;;;;;;;;;;4917939;29;20032;-64
2021/11/24 05:08:14;;;;;;;55.33;29.77;;;;;;;;;;4918045;29;20492;-62
2021/11/24 05:10:40;;;;;;;60.65;30.20;;;;;;;;;;4918074;29;20024;-62
2021/11/24 05:13:07;;;;;;;58.95;31.08;;;;;;;;;;4917963;29;20080;-70
2021/11/24 05:15:35;;;;;;;56.50;30.88;;;;;;;;;;4917795;29;20115;-62
2021/11/24 05:18:04;;;;;;;61.88;30.67;;;;;;;;;;4918004;29;20036;-62
2021/11/24 05:20:32;;;;;;;63.58;31.77;;;;;;;;;;4918130;29;20028;-64
2021/11/24 05:23:00;;;;;;;56.47;29.38;;;;;;;;;;4917373;29;20040;-62
2021/11/24 05:25:27;;;;;;;54.63;30.08;;;;;;;;;;4917900;29;20038;-62
2021/11/24 05:27:53;;;;;;;54.17;30.25;;;;;;;;;;4917566;29;20031;-68
2021/11/24 05:30:19;;;;;;;56.00;29.33;;;;;;;;;;4917783;29;20024;-62
2021/11/24 05:32:45;;;;;;;56.50;29.55;;;;;;;;;;4917596;29;20476;-63
2021/11/24 05:35:11;;;;;;;55.45;28.90;;;;;;;;;;4917691;29;20046;-62
2021/11/24 05:37:37;;;;;;;57.10;30.98;;;;;;;;;;4917373;29;20028;-62
2021/11/24 05:40:04;;;;;;;63.63;33.85;;;;;;;;;;4917777;29;20035;-62
2021/11/24 05:42:30;;;;;;;67.22;36.17;;;;;;;;;;4917164;29;20032;-62
2021/11/24 05:47:54;;;;;;;63.13;34.85;;;;;;;;;;4895070;29;20078;-62
2021/11/24 05:50:20;;;;;;;66.68;35.38;;;;;;;;;;4916768;29;20036;-62
2021/11/24 05:52:46;;;;;;;69.97;37.03;;;;;;;;;;4916847;29;20031;-62
2021/11/24 05:55:12;;;;;;;74.53;39.97;;;;;;;;;;4916306;29;20039;-63
2021/11/24 05:57:38;;;;;;;63.92;34.53;;;;;;;;;;4917138;29;20031;-63
2021/11/24 06:00:05;;;;;;;62.00;33.85;;;;;;;;;;4917292;29;20032;-62
2021/11/24 06:02:31;;;;;;;64.40;33.90;;;;;;;;;;4916937;29;20032;-62
2021/11/24 06:04:58;;;;;;;68.05;33.30;;;;;;;;;;4917053;29;20032;-63
2021/11/24 06:07:24;;;;;;;80.32;42.20;;;;;;;;;;4916863;29;20036;-63
2021/11/24 06:09:50;;;;;;;67.50;35.78;;;;;;;;;;4916815;29;20032;-63
2021/11/24 06:12:16;;;;;;;59.15;32.22;;;;;;;;;;4916715;29;20032;-62
2021/11/24 06:14:44;;;;;;;63.70;33.72;;;;;;;;;;4916753;29;20032;-66
2021/11/24 06:17:10;;;;;;;60.05;33.78;;;;;;;;;;4916492;29;20148;-62
2021/11/24 06:19:36;;;;;;;66.90;35.50;;;;;;;;;;4916624;29;20028;-62
2021/11/24 06:22:03;;;;;;;64.57;35.05;;;;;;;;;;4916070;29;20032;-62
2021/11/24 06:24:29;;;;;;;68.97;35.92;;;;;;;;;;4916378;29;20434;-61
2021/11/24 06:26:55;;;;;;;67.15;35.90;;;;;;;;;;4916375;29;20469;-61
2021/11/24 06:29:21;;;;;;;68.90;34.92;;;;;;;;;;4916505;29;20028;-61
2021/11/24 06:31:47;;;;;;;67.85;36.17;;;;;;;;;;4899668;29;20040;-62
2021/11/24 06:34:13;;;;;;;69.07;36.95;;;;;;;;;;4916399;29;20033;-66
2021/11/24 06:36:39;;;;;;;68.72;36.63;;;;;;;;;;4916488;29;20024;-64
2021/11/24 06:39:05;;;;;;;69.20;36.20;;;;;;;;;;4916215;29;20064;-63
2021/11/24 06:41:31;;;;;;;69.47;38.15;;;;;;;;;;4916332;29;20513;-63
2021/11/24 06:43:57;;;;;;;65.80;36.42;;;;;;;;;;4916143;29;20040;-62
2021/11/24 06:46:23;;;;;;;78.50;42.33;;;;;;;;;;4916096;29;20032;-63
2021/11/24 06:48:49;;;;;;;90.82;46.38;;;;;;;;;;4915769;29;20060;-62
2021/11/24 06:51:15;;;;;;;106.40;52.92;;;;;;;;;;4915976;29;20028;-62
2021/11/24 06:53:42;;;;;;;118.93;55.80;;;;;;;;;;4915998;29;20046;-62
2021/11/24 06:56:08;;;;;;;119.07;55.65;;;;;;;;;;4916109;29;20040;-65
2021/11/24 06:58:34;;;;;;;116.40;55.40;;;;;;;;;;4915941;29;20040;-61
2021/11/24 07:01:02;;;;;;;115.00;56.00;;;;;;;;;;4915989;29;20035;-62
2021/11/24 07:03:28;;;;;;;114.80;56.22;;;;;;;;;;4909323;29;20064;-63
2021/11/24 07:05:55;;;;;;;116.88;55.92;;;;;;;;;;4896874;29;20036;-60
2021/11/24 07:08:22;;;;;;;109.22;54.85;;;;;;;;;;4879471;29;20091;-61
2021/11/24 07:10:48;;;;;;;114.13;56.03;;;;;;;;;;4896641;29;20040;-62
2021/11/24 07:13:14;;;;;;;113.18;56.45;;;;;;;;;;4895629;29;20050;-69
2021/11/24 07:15:40;;;;;;;111.70;52.95;;;;;;;;;;4895655;29;20519;-61
2021/11/24 07:18:06;;;;;;;103.25;50.13;;;;;;;;;;4895931;29;20473;-61
2021/11/24 07:20:32;;;;;;;101.40;51.90;;;;;;;;;;4895286;29;20028;-60
2021/11/24 07:22:59;;;;;;;105.75;50.28;;;;;;;;;;4895204;29;20084;-61
2021/11/24 07:25:25;;;;;;;92.68;47.00;;;;;;;;;;4896854;29;20033;-63
2021/11/24 07:27:52;;;;;;;88.13;44.67;;;;;;;;;;4896718;29;20060;-63
2021/11/24 07:30:19;;;;;;;96.70;46.22;;;;;;;;;;4896484;29;20028;-63
2021/11/24 07:32:45;;;;;;;81.90;43.13;;;;;;;;;;4896131;29;20036;-63
2021/11/24 07:35:11;;;;;;;85.25;43.08;;;;;;;;;;4896139;29;20480;-61
2021/11/24 07:37:38;;;;;;;85.78;44.35;;;;;;;;;;4896124;29;20048;-62
2021/11/24 07:40:05;;;;;;;88.10;43.80;;;;;;;;;;4896430;29;20586;-61
2021/11/24 07:42:31;;;;;;;95.60;46.95;;;;;;;;;;4895821;29;20374;-61
2021/11/24 07:44:57;;;;;;;101.07;50.72;;;;;;;;;;4896030;29;20028;-60
2021/11/24 07:47:24;;;;;;;92.05;46.45;;;;;;;;;;4896772;29;20025;-66
2021/11/24 07:49:50;;;;;;;88.22;45.67;;;;;;;;;;4897465;29;20118;-64
2021/11/24 07:52:17;;;;;;;91.93;45.60;;;;;;;;;;4895775;29;20061;-63
2021/11/24 07:54:43;;;;;;;89.40;45.10;;;;;;;;;;4895977;29;20040;-62
2021/11/24 07:57:09;;;;;;;92.07;46.50;;;;;;;;;;4896047;29;20032;-63
2021/11/24 07:59:37;;;;;;;90.78;47.08;;;;;;;;;;4896339;29;20115;-61
2021/11/24 08:02:03;;;;;;;89.32;45.88;;;;;;;;;;4895948;29;20099;-62
2021/11/24 08:04:29;;;;;;;82.05;41.08;;;;;;;;;;4896129;29;20040;-64
2021/11/24 08:06:59;;;;;;;76.07;40.33;;;;;;;;;;4895710;29;20123;-69
2021/11/24 08:09:25;;;;;;;70.32;38.03;;;;;;;;;;4895877;29;20640;-61
2021/11/24 08:11:51;;;;;;;70.13;39.42;;;;;;;;;;4896048;29;20099;-63
2021/11/24 08:14:18;;;;;;;77.88;39.60;;;;;;;;;;4895123;29;20073;-62
2021/11/24 08:16:44;;;;;;;74.90;39.30;;;;;;;;;;4895535;29;20436;-65
2021/11/24 08:19:10;;;;;;;86.38;40.45;;;;;;;;;;4895648;29;20037;-64
2021/11/24 08:21:36;;;;;;;80.07;39.88;;;;;;;;;;4894782;29;20572;-64
2021/11/24 08:24:02;;;;;;;70.10;37.25;;;;;;;;;;4893647;29;20070;-63
2021/11/24 08:26:28;;;;;;;70.13;38.67;;;;;;;;;;4893849;29;20052;-64
2021/11/24 08:28:54;;;;;;;78.15;39.28;;;;;;;;;;4894621;29;20035;-64
2021/11/24 08:31:20;;;;;;;72.00;36.85;;;;;;;;;;4894672;29;20058;-64
2021/11/24 08:33:49;;;;;;;72.57;35.78;;;;;;;;;;4894481;29;20532;-64
2021/11/24 08:36:15;;;;;;;69.30;35.83;;;;;;;;;;4894725;29;20104;-62
2021/11/24 08:38:42;;;;;;;83.10;39.67;;;;;;;;;;4893813;29;20032;-66
2021/11/24 08:41:11;;;;;;;67.75;36.70;;;;;;;;;;4894276;29;20507;-64
2021/11/24 08:43:38;;;;;;;69.78;36.97;;;;;;;;;;4893682;29;20036;-63
2021/11/24 08:46:04;;;;;;;90.65;46.65;;;;;;;;;;4894576;29;20116;-64
2021/11/24 08:48:30;;;;;;;86.75;43.90;;;;;;;;;;4893354;29;20477;-64
2021/11/24 08:50:56;;;;;;;75.55;39.75;;;;;;;;;;4894102;29;20056;-64
2021/11/24 08:53:22;;;;;;;75.15;39.13;;;;;;;;;;4894246;29;20060;-64
2021/11/24 08:55:49;;;;;;;76.53;39.83;;;;;;;;;;4894301;29;20032;-65
2021/11/24 08:58:15;;;;;;;75.47;39.00;;;;;;;;;;4893785;29;20199;-66
2021/11/24 09:00:41;;;;;;;70.20;37.30;;;;;;;;;;4893225;29;20057;-64
2021/11/24 09:03:09;;;;;;;72.28;37.92;;;;;;;;;;4893556;29;20068;-65
2021/11/24 09:05:35;;;;;;;81.13;39.95;;;;;;;;;;4894304;29;20461;-64
2021/11/24 09:08:02;;;;;;;72.85;37.63;;;;;;;;;;4893288;29;20501;-64
2021/11/24 09:10:30;;;;;;;70.95;36.10;;;;;;;;;;4894160;29;20426;-66
2021/11/24 09:12:57;;;;;;;69.07;37.88;;;;;;;;;;4893781;29;20025;-65
2021/11/24 09:15:23;;;;;;;90.13;46.78;;;;;;;;;;4894830;29;20025;-64
2021/11/24 09:17:49;;;;;;;78.78;41.08;;;;;;;;;;4895038;29;20028;-65
2021/11/24 09:20:15;;;;;;;79.63;40.50;;;;;;;;;;4894462;29;20068;-64
2021/11/24 09:22:44;;;;;;;81.22;41.97;;;;;;;;;;4894674;29;20492;-64
2021/11/24 09:25:13;;;;;;;83.50;42.67;;;;;;;;;;4894922;29;20033;-63
2021/11/24 09:27:57;;;;;;;89.40;44.05;;;;;;;;;;4898056;29;20036;-64
2021/11/24 09:30:24;;;;;;;85.90;44.05;;;;;;;;;;4898812;29;20024;-63
2021/11/24 09:32:50;;;;;;;76.30;39.67;;;;;;;;;;4897730;29;20040;-63
2021/11/24 09:35:16;;;;;;;77.50;41.10;;;;;;;;;;4898567;29;20107;-63
2021/11/24 09:37:42;;;;;;;83.00;41.97;;;;;;;;;;4898165;29;20028;-65
2021/11/24 09:40:09;;;;;;;73.63;39.35;;;;;;;;;;4898447;29;20031;-64
2021/11/24 09:42:40;;;;;;;68.90;37.63;;;;;;;;;;4897800;29;20473;-63
2021/11/24 09:45:06;;;;;;;71.70;38.03;;;;;;;;;;4898103;29;20036;-65
2021/11/24 09:47:33;;;;;;;66.13;36.65;;;;;;;;;;4898210;29;20500;-65
2021/11/24 09:50:00;;;;;;;57.33;30.70;;;;;;;;;;4897889;29;20104;-63
2021/11/24 09:52:26;;;;;;;47.63;25.48;;;;;;;;;;4898338;29;20065;-65
2021/11/24 09:54:53;;;;;;;41.85;23.05;;;;;;;;;;4897820;29;20041;-63
2021/11/24 09:57:20;;;;;;;46.05;25.42;;;;;;;;;;4898320;29;20036;-63
2021/11/24 09:59:46;;;;;;;38.50;22.05;;;;;;;;;;4898042;29;20032;-64
2021/11/24 10:02:13;;;;;;;41.38;23.05;;;;;;;;;;4898032;29;20060;-65
2021/11/24 10:04:43;;;;;;;43.38;22.95;;;;;;;;;;4898166;29;20036;-64
2021/11/24 10:07:12;;;;;;;37.75;22.27;;;;;;;;;;4897727;29;20465;-64
2021/11/24 10:09:40;;;;;;;35.08;20.55;;;;;;;;;;4898201;29;20029;-65
2021/11/24 10:12:06;;;;;;;40.65;23.40;;;;;;;;;;4897852;29;20029;-63
2021/11/24 10:14:32;;;;;;;38.55;21.85;;;;;;;;;;4897610;29;20496;-64
2021/11/24 10:17:09;;;;;;;39.45;20.30;;;;;;;;;;4897958;29;20040;-63
2021/11/24 10:19:35;;;;;;;42.28;21.98;;;;;;;;;;4897792;29;20106;-65
2021/11/24 10:22:05;;;;;;;35.67;19.00;;;;;;;;;;4897465;29;20108;-64
2021/11/24 10:24:36;;;;;;;34.60;19.17;;;;;;;;;;4880697;29;20434;-66
2021/11/24 10:27:03;;;;;;;37.95;20.50;;;;;;;;;;4897432;29;20020;-64
2021/11/24 10:29:29;;;;;;;34.00;18.80;;;;;;;;;;4897858;29;20035;-64
2021/11/24 10:32:03;;;;;;;32.33;17.77;;;;;;;;;;4897173;29;20036;-62
2021/11/24 10:34:36;;;;;;;33.65;17.75;;;;;;;;;;4897509;29;20063;-63
2021/11/24 10:37:05;;;;;;;37.83;19.77;;;;;;;;;;4880214;29;20429;-63
2021/11/24 10:39:53;;;;;;;105.22;57.35;;;;;;;;;;4897518;29;20059;-63
2021/11/24 10:42:22;;;;;;;41.67;23.15;;;;;;;;;;4881988;29;20044;-64
2021/11/24 10:44:49;;;;;;;46.10;25.20;;;;;;;;;;4897236;29;20043;-65
2021/11/24 10:47:16;;;;;;;49.17;26.90;;;;;;;;;;4897540;29;20101;-63
2021/11/24 10:49:46;;;;;;;49.45;27.67;;;;;;;;;;4896979;29;20052;-63
2021/11/24 10:52:13;;;;;;;40.55;22.77;;;;;;;;;;4896143;29;20085;-65
2021/11/24 10:54:39;;;;;;;39.22;22.20;;;;;;;;;;4895583;29;20104;-65
2021/11/24 10:57:08;;;;;;;39.03;22.63;;;;;;;;;;4896074;29;20107;-69
2021/11/24 10:59:38;;;;;;;44.58;24.20;;;;;;;;;;4896233;29;20422;-63
2021/11/24 11:02:25;;;;;;;42.85;23.35;;;;;;;;;;4893425;29;20029;-64
2021/11/24 11:04:54;;;;;;;41.22;23.45;;;;;;;;;;4894256;29;20426;-64
2021/11/24 11:07:20;;;;;;;40.67;22.02;;;;;;;;;;4878457;29;20119;-66
2021/11/24 11:09:47;;;;;;;40.67;22.23;;;;;;;;;;4895683;29;20366;-64
2021/11/24 11:12:13;;;;;;;46.42;24.95;;;;;;;;;;4895096;29;20139;-64
2021/11/24 11:14:40;;;;;;;40.33;23.05;;;;;;;;;;4896348;29;20034;-64
2021/11/24 11:17:06;;;;;;;36.05;20.25;;;;;;;;;;4895144;29;20032;-65
2021/11/24 11:19:39;;;;;;;37.53;20.88;;;;;;;;;;4895665;29;20128;-62
2021/11/24 11:22:05;;;;;;;33.00;19.58;;;;;;;;;;4895319;29;20072;-64
2021/11/24 11:24:32;;;;;;;39.03;22.10;;;;;;;;;;4877999;29;20449;-64
2021/11/24 11:26:58;;;;;;;37.00;21.90;;;;;;;;;;4894991;29;20504;-62
2021/11/24 11:29:25;;;;;;;35.17;21.15;;;;;;;;;;4895450;29;20317;-61
2021/11/24 11:31:51;;;;;;;43.08;24.60;;;;;;;;;;4895180;29;20032;-60
2021/11/24 11:34:19;;;;;;;40.10;22.95;;;;;;;;;;4894482;29;20039;-62
2021/11/24 11:36:46;;;;;;;46.00;24.35;;;;;;;;;;4893386;29;20076;-64
2021/11/24 11:39:12;;;;;;;42.80;22.98;;;;;;;;;;4894956;29;20084;-62
2021/11/24 11:41:42;;;;;;;39.47;22.20;;;;;;;;;;4895183;29;20043;-70
2021/11/24 11:44:12;;;;;;;39.85;22.60;;;;;;;;;;4894716;29;20040;-64
2021/11/24 11:46:43;;;;;;;36.92;21.10;;;;;;;;;;4892065;29;20036;-66
2021/11/24 11:49:11;;;;;;;38.83;21.58;;;;;;;;;;4895436;29;20147;-64
2021/11/24 11:51:39;;;;;;;38.10;20.65;;;;;;;;;;4895112;29;20024;-64
2021/11/24 11:54:05;;;;;;;38.22;21.52;;;;;;;;;;4895335;29;20465;-64
2021/11/24 11:56:46;;;;;;;36.97;21.77;;;;;;;;;;4894396;29;20024;-63
2021/11/24 11:59:17;;;;;;;37.80;20.45;;;;;;;;;;4894624;29;20040;-62
2021/11/24 12:01:43;;;;;;;33.40;18.10;;;;;;;;;;4894239;29;20081;-63
2021/11/24 12:04:20;;;;;;;33.47;18.70;;;;;;;;;;4893653;29;20036;-62
2021/11/24 12:06:47;;;;;;;28.00;16.90;;;;;;;;;;4894247;29;20645;-64
2021/11/24 12:09:15;;;;;;;31.90;17.25;;;;;;;;;;4893903;29;20611;-67
2021/11/24 12:12:04;;;;;;;31.27;17.95;;;;;;;;;;4894062;29;20412;-65
2021/11/24 12:14:42;;;;;;;29.30;17.60;;;;;;;;;;4893467;29;20405;-66
2021/11/24 12:17:39;;;;;;;28.20;16.25;;;;;;;;;;4894205;29;20025;-65
2021/11/24 12:20:22;;;;;;;32.63;17.75;;;;;;;;;;4816342;29;20042;-66
2021/11/24 12:27:52;;;;;;;29.75;17.23;;;;;;;;;;4817947;29;20062;-64
2021/11/24 12:33:00;;;;;;;27.80;15.85;;;;;;;;;;4817707;29;20039;-62
2021/11/24 12:35:26;;;;;;;32.42;17.65;;;;;;;;;;4817472;29;20049;-64
2021/11/24 12:37:55;;;;;;;32.60;18.23;;;;;;;;;;4817643;29;20099;-63
2021/11/24 12:40:28;;;;;;;31.23;17.92;;;;;;;;;;4818891;29;20034;-67
2021/11/24 12:43:01;;;;;;;28.98;16.77;;;;;;;;;;4800427;29;20074;-66
2021/11/24 12:45:28;;;;;;;32.40;17.60;;;;;;;;;;4814763;29;20035;-64
2021/11/24 12:47:58;;;;;;;32.13;17.67;;;;;;;;;;4818912;29;20489;-63
2021/11/24 12:50:25;;;;;;;38.00;20.13;;;;;;;;;;4819341;29;20538;-62
2021/11/24 12:52:58;;;;;;;37.72;20.70;;;;;;;;;;4791530;29;20146;-63
2021/11/24 12:55:25;;;;;;;34.47;19.98;;;;;;;;;;4798772;29;20042;-62
2021/11/24 12:57:51;;;;;;;36.05;19.90;;;;;;;;;;4858430;29;20053;-63
2021/11/24 13:00:31;;;;;;;34.17;19.05;;;;;;;;;;4873741;29;20528;-62
2021/11/24 13:03:00;;;;;;;35.05;18.75;;;;;;;;;;4878986;29;20041;-65
2021/11/24 13:05:26;;;;;;;33.13;19.10;;;;;;;;;;4866252;29;20057;-63
2021/11/24 13:07:54;;;;;;;37.47;20.48;;;;;;;;;;4869702;29;20104;-63
2021/11/24 13:10:21;;;;;;;32.75;18.58;;;;;;;;;;4872978;29;20028;-63
2021/11/24 13:12:47;;;;;;;33.13;17.67;;;;;;;;;;4870980;29;20064;-63
2021/11/24 13:15:13;;;;;;;30.88;17.45;;;;;;;;;;4866233;29;20034;-61
2021/11/24 13:17:42;;;;;;;30.77;18.95;;;;;;;;;;4865508;29;20489;-64
2021/11/24 13:20:10;;;;;;;30.67;18.15;;;;;;;;;;4866026;29;20034;-63
2021/11/24 13:22:43;;;;;;;34.20;20.40;;;;;;;;;;4869381;29;20400;-62
2021/11/24 13:25:20;;;;;;;38.97;21.58;;;;;;;;;;4870108;29;20029;-65
2021/11/24 13:27:53;;;;;;;40.13;23.85;;;;;;;;;;4869951;29;20024;-62
2021/11/24 13:30:24;;;;;;;42.58;24.83;;;;;;;;;;4868884;29;20137;-63
2021/11/24 13:33:17;;;;;;;39.22;22.17;;;;;;;;;;4864766;29;20029;-64
2021/11/24 13:35:44;;;;;;;37.55;21.08;;;;;;;;;;4865982;29;20490;-66
2021/11/24 13:38:11;;;;;;;51.50;26.80;;;;;;;;;;4868868;29;20025;-64
2021/11/24 13:40:38;;;;;;;48.10;25.67;;;;;;;;;;4870728;29;20111;-63
2021/11/24 13:43:05;;;;;;;29.75;16.25;;;;;;;;;;4868692;29;20041;-63
2021/11/24 13:45:35;;;;;;;43.90;23.83;;;;;;;;;;4868534;29;20033;-64
2021/11/24 13:48:11;;;;;;;36.67;23.48;;;;;;;;;;4876283;29;20044;-63
2021/11/24 13:50:38;;;;;;;47.80;26.27;;;;;;;;;;4897134;29;20040;-63
2021/11/24 13:53:20;;;;;;;31.00;18.55;;;;;;;;;;4897752;29;20067;-63
2021/11/24 13:55:46;;;;;;;33.80;20.45;;;;;;;;;;4897943;29;20060;-63
2021/11/24 13:58:12;;;;;;;34.47;18.88;;;;;;;;;;4898159;29;20020;-64
2021/11/24 14:00:38;;;;;;;33.78;18.77;;;;;;;;;;4898039;29;20036;-65
2021/11/24 14:03:04;;;;;;;35.50;19.00;;;;;;;;;;4898078;29;20096;-65
2021/11/24 14:05:36;;;;;;;36.58;19.42;;;;;;;;;;4897822;29;20029;-64
2021/11/24 14:08:16;;;;;;;33.75;19.70;;;;;;;;;;4897338;29;20056;-63
2021/11/24 14:10:42;;;;;;;33.13;19.77;;;;;;;;;;4897620;29;20366;-63
2021/11/24 14:13:12;;;;;;;37.53;21.58;;;;;;;;;;4897214;29;20504;-64
2021/11/24 14:15:38;;;;;;;35.83;20.30;;;;;;;;;;4897421;29;20029;-63
2021/11/24 14:18:07;;;;;;;36.97;21.55;;;;;;;;;;4897357;29;20039;-64
2021/11/24 14:20:38;;;;;;;40.65;22.08;;;;;;;;;;4897371;29;20392;-63
2021/11/24 14:23:05;;;;;;;34.38;20.70;;;;;;;;;;4896737;29;20504;-63
2021/11/24 14:25:37;;;;;;;34.45;20.50;;;;;;;;;;4897732;29;20044;-63
2021/11/24 14:28:06;;;;;;;38.85;20.85;;;;;;;;;;4897993;29;20036;-63